createdAt,value
2023-04-01T00:00:18.997Z,621.00
2023-04-01T00:01:19.100Z,626.00
2023-04-01T00:02:19.148Z,627.00
2023-04-01T00:03:19.330Z,627.00
2023-04-01T00:04:19.269Z,624.00
2023-04-01T00:05:19.299Z,621.00
2023-04-01T00:06:19.341Z,621.00
2023-04-01T00:07:19.373Z,624.00
2023-04-01T00:08:19.411Z,622.00
2023-04-01T00:09:19.456Z,623.00
2023-04-01T00:10:19.504Z,623.00
2023-04-01T00:11:20.482Z,625.00
2023-04-01T00:12:19.624Z,624.00
2023-04-01T00:13:19.640Z,624.00
2023-04-01T00:14:19.702Z,625.00
2023-04-01T00:15:19.752Z,622.00
2023-04-01T00:16:21.650Z,622.00
2023-04-01T00:17:19.785Z,621.00
2023-04-01T00:18:19.760Z,623.00
2023-04-01T00:19:19.770Z,626.00
2023-04-01T00:20:19.751Z,627.00
2023-04-01T00:21:19.753Z,625.00
2023-04-01T00:22:19.745Z,626.00
2023-04-01T00:23:19.740Z,625.00
2023-04-01T00:24:19.719Z,625.00
2023-04-01T00:25:19.743Z,625.00
2023-04-01T00:26:19.754Z,623.00
2023-04-01T00:27:19.703Z,623.00
2023-04-01T00:28:19.730Z,620.00
2023-04-01T00:29:19.733Z,620.00
2023-04-01T00:30:19.697Z,620.00
2023-04-01T00:31:19.710Z,621.00
2023-04-01T00:32:19.701Z,620.00
2023-04-01T00:33:19.699Z,620.00
2023-04-01T00:34:19.699Z,623.00
2023-04-01T00:35:19.668Z,623.00
2023-04-01T00:36:19.707Z,622.00
2023-04-01T00:37:19.652Z,623.00
2023-04-01T00:38:19.647Z,622.00
2023-04-01T00:39:19.659Z,621.00
2023-04-01T00:40:19.638Z,622.00
2023-04-01T00:41:19.652Z,621.00
2023-04-01T00:42:19.638Z,619.00
2023-04-01T00:43:19.601Z,621.00
2023-04-01T00:44:19.639Z,623.00
2023-04-01T00:45:19.611Z,622.00
2023-04-01T00:46:19.685Z,621.00
2023-04-01T00:47:19.578Z,619.00
2023-04-01T00:48:19.571Z,620.00
2023-04-01T00:49:19.612Z,621.00
2023-04-01T00:50:19.563Z,620.00
2023-04-01T00:51:19.581Z,622.00
2023-04-01T00:52:19.550Z,623.00
2023-04-01T00:53:19.556Z,621.00
2023-04-01T00:54:19.542Z,623.00
2023-04-01T00:55:19.532Z,623.00
2023-04-01T00:56:19.580Z,625.00
2023-04-01T00:57:19.648Z,626.00
2023-04-01T00:58:19.688Z,623.00
2023-04-01T00:59:19.759Z,622.00
2023-04-01T01:00:19.808Z,625.00
2023-04-01T01:01:19.871Z,624.00
2023-04-01T01:02:19.903Z,622.00
2023-04-01T01:03:19.998Z,620.00
2023-04-01T01:04:20.022Z,617.00
2023-04-01T01:05:20.078Z,615.00
2023-04-01T01:06:20.125Z,613.00
2023-04-01T01:07:20.186Z,615.00
2023-04-01T01:08:20.282Z,617.00
2023-04-01T01:09:20.337Z,615.00
2023-04-01T01:10:20.383Z,616.00
2023-04-01T01:11:20.623Z,618.00
2023-04-01T01:12:20.510Z,616.00
2023-04-01T01:13:20.532Z,614.00
2023-04-01T01:14:20.628Z,614.00
2023-04-01T01:15:20.679Z,613.00
2023-04-01T01:16:20.749Z,616.00
2023-04-01T01:17:20.829Z,616.00
2023-04-01T01:18:20.879Z,614.00
2023-04-01T01:19:20.925Z,615.00
2023-04-01T01:20:26.327Z,616.00
2023-04-01T01:21:21.982Z,618.00
2023-04-01T01:22:20.949Z,618.00
2023-04-01T01:23:20.942Z,614.00
2023-04-01T01:24:20.938Z,613.00
2023-04-01T01:25:20.926Z,611.00
2023-04-01T01:26:20.935Z,613.00
2023-04-01T01:27:20.917Z,614.00
2023-04-01T01:28:20.902Z,614.00
2023-04-01T01:29:20.961Z,615.00
2023-04-01T01:30:21.008Z,617.00
2023-04-01T01:31:21.097Z,618.00
2023-04-01T01:32:21.125Z,616.00
2023-04-01T01:33:21.184Z,616.00
2023-04-01T01:34:21.274Z,615.00
2023-04-01T01:35:21.290Z,613.00
2023-04-01T01:36:21.389Z,612.00
2023-04-01T01:37:21.421Z,611.00
2023-04-01T01:38:21.597Z,611.00
2023-04-01T01:39:21.551Z,610.00
2023-04-01T01:40:21.604Z,609.00
2023-04-01T01:41:21.666Z,611.00
2023-04-01T01:42:21.708Z,613.00
2023-04-01T01:43:21.810Z,611.00
2023-04-01T01:44:21.863Z,611.00
2023-04-01T01:45:21.898Z,610.00
2023-04-01T01:46:22.098Z,609.00
2023-04-01T01:47:22.043Z,608.00
2023-04-01T01:48:22.110Z,608.00
2023-04-01T01:49:22.187Z,609.00
2023-04-01T01:50:22.225Z,613.00
2023-04-01T01:51:22.247Z,614.00
2023-04-01T01:52:22.337Z,613.00
2023-04-01T01:53:22.403Z,610.00
2023-04-01T01:54:22.475Z,609.00
2023-04-01T01:55:22.526Z,606.00
2023-04-01T01:56:22.586Z,605.00
2023-04-01T01:57:22.761Z,604.00
2023-04-01T01:58:22.680Z,603.00
2023-04-01T01:59:22.793Z,602.00
2023-04-01T02:00:22.820Z,603.00
2023-04-01T02:01:22.909Z,600.00
2023-04-01T02:02:23.007Z,595.00
2023-04-01T02:03:22.986Z,595.00
2023-04-01T02:04:23.160Z,599.00
2023-04-01T02:05:23.109Z,600.00
2023-04-01T02:06:23.182Z,598.00
2023-04-01T02:07:23.233Z,599.00
2023-04-01T02:08:23.308Z,600.00
2023-04-01T02:09:23.365Z,598.00
2023-04-01T02:10:23.400Z,600.00
2023-04-01T02:11:23.489Z,601.00
2023-04-01T02:12:23.527Z,602.00
2023-04-01T02:13:23.592Z,604.00
2023-04-01T02:14:23.654Z,602.00
2023-04-01T02:15:23.716Z,601.00
2023-04-01T02:16:23.805Z,601.00
2023-04-01T02:17:23.837Z,601.00
2023-04-01T02:18:23.870Z,599.00
2023-04-01T02:19:23.926Z,600.00
2023-04-01T02:20:24.006Z,602.00
2023-04-01T02:21:24.040Z,603.00
2023-04-01T02:22:24.090Z,602.00
2023-04-01T02:23:24.153Z,604.00
2023-04-01T02:24:24.228Z,602.00
2023-04-01T02:25:24.375Z,604.00
2023-04-01T02:26:24.384Z,603.00
2023-04-01T02:27:24.430Z,606.00
2023-04-01T02:28:24.470Z,603.00
2023-04-01T02:29:24.541Z,600.00
2023-04-01T02:30:24.601Z,600.00
2023-04-01T02:31:24.713Z,599.00
2023-04-01T02:32:24.730Z,599.00
2023-04-01T02:33:24.775Z,601.00
2023-04-01T02:34:24.911Z,603.00
2023-04-01T02:35:24.932Z,603.00
2023-04-01T02:36:25.065Z,599.00
2023-04-01T02:37:25.060Z,596.00
2023-04-01T02:38:25.121Z,596.00
2023-04-01T02:39:25.146Z,597.00
2023-04-01T02:40:25.224Z,594.00
2023-04-01T02:41:25.279Z,596.00
2023-04-01T02:42:25.352Z,593.00
2023-04-01T02:43:25.400Z,593.00
2023-04-01T02:44:25.473Z,592.00
2023-04-01T02:45:25.516Z,594.00
2023-04-01T02:46:25.628Z,594.00
2023-04-01T02:47:25.654Z,595.00
2023-04-01T02:48:25.713Z,596.00
2023-04-01T02:49:25.782Z,597.00
2023-04-01T02:50:25.839Z,594.00
2023-04-01T02:51:25.897Z,598.00
2023-04-01T02:52:25.938Z,595.00
2023-04-01T02:53:26.024Z,596.00
2023-04-01T02:54:26.077Z,593.00
2023-04-01T02:55:26.134Z,590.00
2023-04-01T02:56:26.185Z,591.00
2023-04-01T02:57:26.312Z,594.00
2023-04-01T02:58:26.312Z,594.00
2023-04-01T02:59:26.373Z,593.00
2023-04-01T03:00:26.428Z,594.00
2023-04-01T03:01:26.521Z,592.00
2023-04-01T03:02:26.603Z,591.00
2023-04-01T03:03:26.648Z,591.00
2023-04-01T03:04:26.670Z,589.00
2023-04-01T03:05:26.705Z,589.00
2023-04-01T03:06:26.765Z,587.00
2023-04-01T03:07:26.850Z,584.00
2023-04-01T03:08:26.886Z,586.00
2023-04-01T03:09:26.995Z,589.00
2023-04-01T03:10:27.026Z,589.00
2023-04-01T03:11:27.082Z,588.00
2023-04-01T03:12:27.114Z,587.00
2023-04-01T03:13:27.235Z,587.00
2023-04-01T03:14:27.259Z,586.00
2023-04-01T03:15:27.346Z,587.00
2023-04-01T03:16:27.401Z,585.00
2023-04-01T03:17:27.452Z,588.00
2023-04-01T03:18:27.502Z,587.00
2023-04-01T03:19:27.558Z,591.00
2023-04-01T03:20:27.610Z,593.00
2023-04-01T03:21:27.663Z,593.00
2023-04-01T03:22:27.769Z,593.00
2023-04-01T03:23:27.786Z,592.00
2023-04-01T03:24:27.856Z,595.00
2023-04-01T03:25:27.901Z,595.00
2023-04-01T03:26:27.962Z,596.00
2023-04-01T03:27:28.044Z,595.00
2023-04-01T03:28:28.069Z,594.00
2023-04-01T03:29:28.154Z,593.00
2023-04-01T03:30:28.309Z,594.00
2023-04-01T03:31:28.269Z,596.00
2023-04-01T03:32:28.190Z,596.00
2023-04-01T03:33:28.173Z,595.00
2023-04-01T03:34:28.186Z,594.00
2023-04-01T03:35:28.170Z,594.00
2023-04-01T03:36:28.252Z,596.00
2023-04-01T03:37:28.137Z,594.00
2023-04-01T03:38:28.301Z,594.00
2023-04-01T03:39:28.272Z,590.00
2023-04-01T03:40:28.282Z,590.00
2023-04-01T03:41:28.380Z,590.00
2023-04-01T03:42:28.453Z,590.00
2023-04-01T03:43:28.530Z,588.00
2023-04-01T03:44:28.580Z,585.00
2023-04-01T03:45:28.592Z,583.00
2023-04-01T03:46:28.729Z,583.00
2023-04-01T03:48:03.483Z,597.00
2023-04-01T03:49:03.484Z,587.00
2023-04-01T03:50:03.504Z,585.00
2023-04-01T03:51:03.464Z,590.00
2023-04-01T03:52:03.444Z,596.00
2023-04-01T03:53:03.458Z,597.00
2023-04-01T03:54:03.463Z,595.00
2023-04-01T03:55:03.436Z,594.00
2023-04-01T03:56:03.410Z,590.00
2023-04-01T03:57:03.502Z,588.00
2023-04-01T03:58:03.407Z,587.00
2023-04-01T03:59:03.429Z,586.00
2023-04-01T04:00:03.417Z,584.00
2023-04-01T04:01:03.387Z,585.00
2023-04-01T04:02:03.429Z,589.00
2023-04-01T04:03:03.458Z,588.00
2023-04-01T04:04:03.441Z,583.00
2023-04-01T04:05:03.389Z,582.00
2023-04-01T04:06:05.123Z,578.00
2023-04-01T04:07:03.419Z,578.00
2023-04-01T04:08:03.363Z,578.00
2023-04-01T04:09:03.380Z,580.00
2023-04-01T04:10:03.330Z,584.00
2023-04-01T04:11:03.341Z,584.00
2023-04-01T04:12:03.326Z,583.00
2023-04-01T04:13:03.360Z,583.00
2023-04-01T04:14:03.306Z,582.00
2023-04-01T04:15:03.314Z,583.00
2023-04-01T04:16:03.396Z,581.00
2023-04-01T04:17:03.368Z,581.00
2023-04-01T04:18:03.462Z,581.00
2023-04-01T04:19:03.497Z,580.00
2023-04-01T04:20:03.583Z,580.00
2023-04-01T04:21:03.623Z,578.00
2023-04-01T04:22:03.689Z,581.00
2023-04-01T04:23:03.729Z,584.00
2023-04-01T04:24:03.782Z,581.00
2023-04-01T04:25:03.854Z,582.00
2023-04-01T04:26:03.941Z,582.00
2023-04-01T04:27:03.996Z,587.00
2023-04-01T04:28:04.068Z,583.00
2023-04-01T04:29:04.121Z,583.00
2023-04-01T04:30:04.190Z,582.00
2023-04-01T04:31:04.235Z,582.00
2023-04-01T04:32:04.387Z,584.00
2023-04-01T04:33:04.489Z,583.00
2023-04-01T04:34:04.426Z,585.00
2023-04-01T04:35:04.443Z,586.00
2023-04-01T04:36:04.549Z,583.00
2023-04-01T04:37:04.586Z,581.00
2023-04-01T04:38:04.649Z,583.00
2023-04-01T04:39:04.702Z,582.00
2023-04-01T04:40:04.765Z,577.00
2023-04-01T04:41:04.817Z,579.00
2023-04-01T04:42:04.872Z,580.00
2023-04-01T04:43:04.936Z,580.00
2023-04-01T04:44:04.987Z,581.00
2023-04-01T04:45:05.070Z,583.00
2023-04-01T04:46:05.113Z,585.00
2023-04-01T04:47:05.228Z,587.00
2023-04-01T04:48:05.250Z,590.00
2023-04-01T04:49:05.269Z,591.00
2023-04-01T04:50:05.343Z,589.00
2023-04-01T04:51:05.402Z,588.00
2023-04-01T04:52:05.447Z,585.00
2023-04-01T04:53:05.538Z,586.00
2023-04-01T04:54:05.580Z,588.00
2023-04-01T04:55:05.682Z,584.00
2023-04-01T04:56:05.689Z,583.00
2023-04-01T04:57:05.816Z,582.00
2023-04-01T04:58:05.812Z,580.00
2023-04-01T04:59:05.963Z,580.00
2023-04-01T05:00:05.951Z,579.00
2023-04-01T05:01:06.030Z,579.00
2023-04-01T05:02:06.133Z,581.00
2023-04-01T05:03:06.267Z,586.00
2023-04-01T05:04:06.241Z,586.00
2023-04-01T05:06:23.686Z,594.00
2023-04-01T05:07:22.261Z,591.00
2023-04-01T05:08:22.316Z,588.00
2023-04-01T05:09:22.287Z,588.00
2023-04-01T05:10:22.282Z,584.00
2023-04-01T05:11:22.281Z,582.00
2023-04-01T05:12:22.243Z,585.00
2023-04-01T05:13:22.250Z,583.00
2023-04-01T05:14:22.236Z,579.00
2023-04-01T05:15:22.245Z,576.00
2023-04-01T05:16:22.289Z,575.00
2023-04-01T05:17:22.266Z,575.00
2023-04-01T05:18:22.219Z,576.00
2023-04-01T05:19:22.225Z,577.00
2023-04-01T05:20:22.205Z,577.00
2023-04-01T05:21:22.279Z,576.00
2023-04-01T05:22:22.357Z,574.00
2023-04-01T05:23:22.364Z,572.00
2023-04-01T05:24:22.462Z,572.00
2023-04-01T05:25:22.501Z,574.00
2023-04-01T05:26:22.562Z,576.00
2023-04-01T05:27:22.651Z,575.00
2023-04-01T05:28:22.708Z,572.00
2023-04-01T05:29:22.756Z,572.00
2023-04-01T05:30:22.779Z,569.00
2023-04-01T05:31:22.898Z,568.00
2023-04-01T05:32:22.992Z,570.00
2023-04-01T05:33:22.996Z,571.00
2023-04-01T05:34:23.060Z,571.00
2023-04-01T05:35:23.135Z,569.00
2023-04-01T05:36:23.124Z,568.00
2023-04-01T05:37:23.168Z,567.00
2023-04-01T05:38:23.229Z,566.00
2023-04-01T05:39:23.325Z,568.00
2023-04-01T05:40:23.351Z,569.00
2023-04-01T05:41:23.398Z,570.00
2023-04-01T05:42:23.461Z,573.00
2023-04-01T05:43:23.519Z,572.00
2023-04-01T05:44:23.573Z,571.00
2023-04-01T05:45:23.655Z,566.00
2023-04-01T05:46:23.764Z,569.00
2023-04-01T05:47:23.824Z,567.00
2023-04-01T05:48:23.864Z,569.00
2023-04-01T05:49:24.075Z,569.00
2023-04-01T05:50:23.969Z,568.00
2023-04-01T05:51:23.983Z,570.00
2023-04-01T05:52:24.040Z,569.00
2023-04-01T05:53:24.088Z,569.00
2023-04-01T05:54:24.121Z,568.00
2023-04-01T05:55:24.220Z,567.00
2023-04-01T05:56:24.254Z,566.00
2023-04-01T05:57:24.328Z,569.00
2023-04-01T05:58:24.355Z,570.00
2023-04-01T05:59:24.431Z,571.00
2023-04-01T06:00:24.468Z,571.00
2023-04-01T06:01:24.528Z,571.00
2023-04-01T06:02:24.658Z,566.00
2023-04-01T06:03:24.945Z,567.00
2023-04-01T06:04:24.772Z,570.00
2023-04-01T06:05:24.771Z,574.00
2023-04-01T06:06:24.803Z,573.00
2023-04-01T06:07:24.875Z,574.00
2023-04-01T06:08:24.918Z,574.00
2023-04-01T06:09:24.975Z,575.00
2023-04-01T06:10:25.040Z,576.00
2023-04-01T06:11:25.101Z,577.00
2023-04-01T06:12:25.158Z,579.00
2023-04-01T06:13:25.197Z,577.00
2023-04-01T06:14:25.241Z,575.00
2023-04-01T06:15:25.365Z,578.00
2023-04-01T06:16:25.508Z,578.00
2023-04-01T06:17:25.458Z,577.00
2023-04-01T06:18:25.507Z,579.00
2023-04-01T06:19:25.569Z,576.00
2023-04-01T06:20:25.619Z,577.00
2023-04-01T06:21:25.693Z,576.00
2023-04-01T06:22:25.743Z,571.00
2023-04-01T06:23:25.786Z,572.00
2023-04-01T06:24:25.864Z,571.00
2023-04-01T06:25:25.932Z,572.00
2023-04-01T06:26:25.978Z,572.00
2023-04-01T06:27:26.049Z,573.00
2023-04-01T06:28:26.140Z,573.00
2023-04-01T06:29:26.136Z,572.00
2023-04-01T06:30:26.224Z,571.00
2023-04-01T06:31:26.319Z,570.00
2023-04-01T06:32:26.377Z,571.00
2023-04-01T06:33:26.383Z,570.00
2023-04-01T06:34:26.433Z,569.00
2023-04-01T06:35:26.505Z,572.00
2023-04-01T06:36:26.636Z,571.00
2023-04-01T06:37:26.618Z,572.00
2023-04-01T06:38:26.708Z,574.00
2023-04-01T06:39:26.732Z,574.00
2023-04-01T06:40:26.824Z,572.00
2023-04-01T06:41:26.853Z,571.00
2023-04-01T06:42:26.949Z,570.00
2023-04-01T06:43:26.994Z,571.00
2023-04-01T06:44:27.058Z,571.00
2023-04-01T06:45:27.092Z,572.00
2023-04-01T06:46:27.159Z,572.00
2023-04-01T06:47:27.265Z,574.00
2023-04-01T06:48:27.264Z,575.00
2023-04-01T06:49:27.311Z,575.00
2023-04-01T06:50:27.416Z,572.00
2023-04-01T06:51:27.448Z,570.00
2023-04-01T06:52:27.470Z,570.00
2023-04-01T06:53:27.529Z,572.00
2023-04-01T06:54:27.613Z,571.00
2023-04-01T06:55:27.878Z,570.00
2023-04-01T06:56:27.711Z,573.00
2023-04-01T06:57:27.880Z,572.00
2023-04-01T06:58:27.855Z,573.00
2023-04-01T06:59:27.907Z,574.00
2023-04-01T07:00:27.963Z,577.00
2023-04-01T07:01:28.053Z,577.00
2023-04-01T07:02:28.095Z,575.00
2023-04-01T07:03:28.120Z,577.00
2023-04-01T07:04:28.257Z,576.00
2023-04-01T07:05:28.247Z,575.00
2023-04-01T07:06:28.296Z,573.00
2023-04-01T07:07:28.443Z,571.00
2023-04-01T07:08:28.432Z,572.00
2023-04-01T07:09:28.481Z,571.00
2023-04-01T07:10:28.528Z,572.00
2023-04-01T07:11:28.587Z,567.00
2023-04-01T07:12:28.667Z,566.00
2023-04-01T07:13:28.721Z,568.00
2023-04-01T07:14:28.783Z,569.00
2023-04-01T07:15:28.864Z,570.00
2023-04-01T07:16:29.117Z,570.00
2023-04-01T07:17:29.006Z,572.00
2023-04-01T07:18:29.089Z,571.00
2023-04-01T07:19:29.124Z,572.00
2023-04-01T07:20:29.134Z,572.00
2023-04-01T07:21:30.527Z,574.00
2023-04-01T07:22:29.289Z,573.00
2023-04-01T07:23:29.321Z,574.00
2023-04-01T07:24:29.358Z,572.00
2023-04-01T07:25:29.440Z,572.00
2023-04-01T07:26:29.526Z,574.00
2023-04-01T07:27:29.550Z,576.00
2023-04-01T07:28:29.612Z,575.00
2023-04-01T07:29:29.658Z,573.00
2023-04-01T07:30:29.736Z,572.00
2023-04-01T07:31:29.841Z,571.00
2023-04-01T07:32:30.122Z,570.00
2023-04-01T07:33:29.914Z,571.00
2023-04-01T07:34:29.952Z,570.00
2023-04-01T07:35:30.033Z,571.00
2023-04-01T07:36:30.081Z,568.00
2023-04-01T07:37:30.167Z,567.00
2023-04-01T07:38:30.342Z,568.00
2023-04-01T07:39:30.281Z,567.00
2023-04-01T07:40:30.341Z,565.00
2023-04-01T07:41:30.421Z,566.00
2023-04-01T07:42:30.454Z,568.00
2023-04-01T07:43:30.515Z,571.00
2023-04-01T07:44:30.583Z,569.00
2023-04-01T07:45:30.688Z,571.00
2023-04-01T07:46:30.721Z,573.00
2023-04-01T07:47:30.727Z,572.00
2023-04-01T07:48:30.790Z,569.00
2023-04-01T07:49:30.829Z,567.00
2023-04-01T07:50:30.946Z,566.00
2023-04-01T07:51:30.980Z,565.00
2023-04-01T07:52:31.045Z,563.00
2023-04-01T07:53:31.088Z,563.00
2023-04-01T07:54:31.143Z,562.00
2023-04-01T07:55:31.420Z,561.00
2023-04-01T07:56:31.261Z,563.00
2023-04-01T07:57:31.370Z,564.00
2023-04-01T07:58:31.436Z,563.00
2023-04-01T07:59:31.468Z,564.00
2023-04-01T08:00:31.511Z,564.00
2023-04-01T08:01:31.562Z,564.00
2023-04-01T08:02:31.752Z,564.00
2023-04-01T08:03:31.820Z,565.00
2023-04-01T08:04:31.826Z,565.00
2023-04-01T08:05:32.133Z,566.00
2023-04-01T08:06:31.877Z,567.00
2023-04-01T08:07:31.933Z,565.00
2023-04-01T08:08:31.978Z,564.00
2023-04-01T08:09:32.064Z,565.00
2023-04-01T08:10:32.085Z,564.00
2023-04-01T08:11:32.184Z,566.00
2023-04-01T08:12:32.251Z,567.00
2023-04-01T08:13:32.276Z,568.00
2023-04-01T08:14:32.368Z,567.00
2023-04-01T08:15:32.646Z,565.00
2023-04-01T08:16:32.492Z,564.00
2023-04-01T08:17:32.569Z,563.00
2023-04-01T08:18:32.580Z,563.00
2023-04-01T08:19:32.659Z,562.00
2023-04-01T08:20:32.720Z,563.00
2023-04-01T08:21:32.749Z,558.00
2023-04-01T08:22:32.835Z,557.00
2023-04-01T08:23:32.897Z,556.00
2023-04-01T08:24:44.469Z,559.00
2023-04-01T08:25:34.182Z,561.00
2023-04-01T08:26:32.971Z,563.00
2023-04-01T08:27:32.928Z,565.00
2023-04-01T08:28:32.940Z,564.00
2023-04-01T08:29:32.922Z,563.00
2023-04-01T08:30:32.902Z,561.00
2023-04-01T08:31:32.932Z,562.00
2023-04-01T08:32:32.929Z,564.00
2023-04-01T08:33:32.888Z,565.00
2023-04-01T08:34:32.981Z,565.00
2023-04-01T08:35:34.906Z,567.00
2023-04-01T08:36:33.024Z,569.00
2023-04-01T08:37:33.027Z,568.00
2023-04-01T08:38:32.962Z,569.00
2023-04-01T08:39:32.960Z,569.00
2023-04-01T08:40:32.981Z,568.00
2023-04-01T08:41:32.951Z,571.00
2023-04-01T08:42:32.959Z,569.00
2023-04-01T08:43:32.972Z,567.00
2023-04-01T08:44:32.933Z,565.00
2023-04-01T08:45:33.244Z,566.00
2023-04-01T08:46:32.932Z,563.00
2023-04-01T08:47:32.945Z,565.00
2023-04-01T08:48:32.928Z,567.00
2023-04-01T08:49:32.904Z,565.00
2023-04-01T08:50:32.922Z,563.00
2023-04-01T08:51:32.884Z,564.00
2023-04-01T08:52:32.873Z,568.00
2023-04-01T08:53:32.883Z,571.00
2023-04-01T08:54:32.894Z,571.00
2023-04-01T08:55:33.091Z,572.00
2023-04-01T08:56:32.870Z,571.00
2023-04-01T08:57:33.003Z,569.00
2023-04-01T08:58:32.846Z,568.00
2023-04-01T08:59:32.841Z,570.00
2023-04-01T09:00:32.878Z,569.00
2023-04-01T09:01:32.881Z,569.00
2023-04-01T09:02:32.941Z,564.00
2023-04-01T09:03:32.928Z,566.00
2023-04-01T09:04:32.928Z,568.00
2023-04-01T09:05:33.016Z,567.00
2023-04-01T09:06:32.825Z,568.00
2023-04-01T09:07:32.773Z,569.00
2023-04-01T09:08:32.780Z,569.00
2023-04-01T09:09:32.796Z,571.00
2023-04-01T09:10:32.783Z,570.00
2023-04-01T09:11:32.830Z,571.00
2023-04-01T09:12:32.775Z,568.00
2023-04-01T09:13:32.805Z,569.00
2023-04-01T09:14:32.865Z,568.00
2023-04-01T09:15:33.283Z,565.00
2023-04-01T09:16:33.109Z,566.00
2023-04-01T09:17:33.023Z,567.00
2023-04-01T09:18:33.093Z,565.00
2023-04-01T09:19:33.131Z,563.00
2023-04-01T09:20:33.180Z,562.00
2023-04-01T09:21:33.249Z,559.00
2023-04-01T09:22:33.310Z,557.00
2023-04-01T09:23:33.345Z,558.00
2023-04-01T09:24:33.502Z,559.00
2023-04-01T09:25:33.665Z,561.00
2023-04-01T09:26:33.524Z,561.00
2023-04-01T09:27:33.616Z,561.00
2023-04-01T09:28:33.624Z,561.00
2023-04-01T09:29:33.713Z,562.00
2023-04-01T09:30:33.747Z,561.00
2023-04-01T09:31:33.915Z,558.00
2023-04-01T09:32:33.829Z,556.00
2023-04-01T09:33:33.874Z,558.00
2023-04-01T09:34:33.914Z,559.00
2023-04-01T09:35:34.112Z,560.00
2023-04-01T09:36:34.054Z,561.00
2023-04-01T09:37:34.095Z,564.00
2023-04-01T09:38:34.095Z,563.00
2023-04-01T09:39:34.166Z,563.00
2023-04-01T09:40:34.232Z,558.00
2023-04-01T09:41:35.307Z,558.00
2023-04-01T09:42:34.303Z,562.00
2023-04-01T09:43:34.366Z,560.00
2023-04-01T09:44:34.411Z,559.00
2023-04-01T09:45:34.622Z,559.00
2023-04-01T09:46:34.533Z,558.00
2023-04-01T09:47:34.570Z,558.00
2023-04-01T09:48:34.607Z,561.00
2023-04-01T09:49:34.620Z,563.00
2023-04-01T09:50:34.672Z,559.00
2023-04-01T09:51:34.764Z,560.00
2023-04-01T09:52:34.796Z,561.00
2023-04-01T09:53:34.824Z,561.00
2023-04-01T09:54:34.888Z,559.00
2023-04-01T09:55:35.098Z,559.00
2023-04-01T09:56:34.955Z,559.00
2023-04-01T09:57:35.051Z,555.00
2023-04-01T09:58:35.035Z,556.00
2023-04-01T09:59:36.034Z,553.00
2023-04-01T10:00:35.058Z,553.00
2023-04-01T10:01:35.067Z,551.00
2023-04-01T10:02:35.154Z,554.00
2023-04-01T10:03:35.025Z,554.00
2023-04-01T10:04:35.016Z,551.00
2023-04-01T10:05:35.320Z,551.00
2023-04-01T10:06:35.001Z,551.00
2023-04-01T10:07:34.984Z,550.00
2023-04-01T10:08:35.017Z,550.00
2023-04-01T10:09:34.963Z,552.00
2023-04-01T10:10:35.064Z,551.00
2023-04-01T10:11:35.088Z,551.00
2023-04-01T10:12:35.124Z,550.00
2023-04-01T10:13:35.160Z,549.00
2023-04-01T10:14:35.209Z,551.00
2023-04-01T10:15:35.442Z,550.00
2023-04-01T10:16:35.328Z,552.00
2023-04-01T10:17:35.406Z,553.00
2023-04-01T10:18:35.407Z,554.00
2023-04-01T10:19:35.405Z,555.00
2023-04-01T10:20:35.459Z,553.00
2023-04-01T10:21:35.516Z,555.00
2023-04-01T10:22:35.584Z,553.00
2023-04-01T10:23:35.625Z,551.00
2023-04-01T10:24:35.675Z,548.00
2023-04-01T10:25:36.001Z,551.00
2023-04-01T10:26:35.750Z,549.00
2023-04-01T10:27:35.773Z,550.00
2023-04-01T10:28:35.824Z,547.00
2023-04-01T10:29:35.890Z,547.00
2023-04-01T10:30:35.925Z,547.00
2023-04-01T10:31:36.015Z,548.00
2023-04-01T10:32:36.032Z,546.00
2023-04-01T10:33:36.039Z,548.00
2023-04-01T10:34:36.088Z,549.00
2023-04-01T10:35:36.429Z,548.00
2023-04-01T10:36:36.161Z,549.00
2023-04-01T10:37:36.216Z,549.00
2023-04-01T10:38:36.244Z,549.00
2023-04-01T10:39:36.311Z,552.00
2023-04-01T10:40:36.355Z,549.00
2023-04-01T10:41:36.367Z,546.00
2023-04-01T10:42:36.420Z,545.00
2023-04-01T10:43:36.444Z,544.00
2023-04-01T10:44:36.483Z,542.00
2023-04-01T10:45:36.699Z,541.00
2023-04-01T10:46:36.588Z,537.00
2023-04-01T10:47:36.596Z,537.00
2023-04-01T10:48:36.638Z,539.00
2023-04-01T10:49:36.749Z,539.00
2023-04-01T10:50:36.719Z,537.00
2023-04-01T10:51:36.751Z,537.00
2023-04-01T10:52:36.782Z,539.00
2023-04-01T10:53:36.839Z,537.00
2023-04-01T10:54:36.871Z,537.00
2023-04-01T10:55:36.924Z,536.00
2023-04-01T10:56:36.922Z,536.00
2023-04-01T10:57:36.984Z,537.00
2023-04-01T10:58:37.012Z,539.00
2023-04-01T10:59:37.032Z,538.00
2023-04-01T11:00:37.046Z,540.00
2023-04-01T11:01:37.133Z,541.00
2023-04-01T11:02:37.228Z,538.00
2023-04-01T11:03:37.276Z,538.00
2023-04-01T11:04:37.181Z,534.00
2023-04-01T11:05:37.221Z,535.00
2023-04-01T11:06:37.249Z,532.00
2023-04-01T11:07:37.301Z,532.00
2023-04-01T11:08:37.298Z,529.00
2023-04-01T11:09:37.400Z,527.00
2023-04-01T11:10:37.387Z,528.00
2023-04-01T11:11:37.408Z,530.00
2023-04-01T11:12:37.443Z,527.00
2023-04-01T11:13:37.489Z,525.00
2023-04-01T11:14:37.516Z,527.00
2023-04-01T11:15:37.581Z,534.00
2023-04-01T11:16:37.660Z,533.00
2023-04-01T11:17:37.638Z,534.00
2023-04-01T11:18:37.613Z,534.00
2023-04-01T11:19:37.652Z,535.00
2023-04-01T11:20:37.685Z,534.00
2023-04-01T11:21:37.742Z,534.00
2023-04-01T11:22:37.748Z,534.00
2023-04-01T11:23:37.791Z,534.00
2023-04-01T11:24:37.835Z,532.00
2023-04-01T11:25:37.858Z,532.00
2023-04-01T11:26:37.907Z,532.00
2023-04-01T11:27:39.606Z,532.00
2023-04-01T11:28:37.932Z,530.00
2023-04-01T11:29:40.533Z,531.00
2023-04-01T11:30:38.981Z,530.00
2023-04-01T11:31:37.983Z,531.00
2023-04-01T11:32:37.983Z,528.00
2023-04-01T11:33:37.961Z,527.00
2023-04-01T11:34:37.938Z,527.00
2023-04-01T11:35:37.953Z,529.00
2023-04-01T11:36:37.971Z,530.00
2023-04-01T11:37:37.937Z,529.00
2023-04-01T11:38:37.900Z,530.00
2023-04-01T11:39:37.911Z,530.00
2023-04-01T11:40:37.937Z,530.00
2023-04-01T11:41:37.885Z,530.00
2023-04-01T11:42:37.888Z,529.00
2023-04-01T11:43:37.961Z,528.00
2023-04-01T11:44:37.898Z,527.00
2023-04-01T11:45:37.917Z,526.00
2023-04-01T11:46:37.998Z,523.00
2023-04-01T11:47:37.988Z,524.00
2023-04-01T11:48:37.971Z,526.00
2023-04-01T11:49:38.026Z,525.00
2023-04-01T11:50:38.052Z,525.00
2023-04-01T11:51:38.074Z,524.00
2023-04-01T11:52:38.049Z,521.00
2023-04-01T11:53:38.118Z,521.00
2023-04-01T11:54:38.130Z,522.00
2023-04-01T11:55:38.131Z,523.00
2023-04-01T11:56:38.157Z,524.00
2023-04-01T11:57:38.200Z,523.00
2023-04-01T11:58:38.193Z,524.00
2023-04-01T11:59:38.196Z,523.00
2023-04-01T12:00:38.243Z,523.00
2023-04-01T12:01:38.261Z,527.00
2023-04-01T12:02:38.406Z,524.00
2023-04-01T12:03:38.421Z,523.00
2023-04-01T12:04:38.368Z,524.00
2023-04-01T12:05:38.406Z,523.00
2023-04-01T12:06:38.388Z,525.00
2023-04-01T12:07:38.423Z,523.00
2023-04-01T12:08:38.416Z,522.00
2023-04-01T12:09:38.450Z,522.00
2023-04-01T12:10:38.466Z,521.00
2023-04-01T12:11:38.472Z,523.00
2023-04-01T12:12:41.501Z,526.00
2023-04-01T12:13:39.530Z,528.00
2023-04-01T12:14:38.491Z,528.00
2023-04-01T12:15:38.535Z,528.00
2023-04-01T12:16:38.536Z,528.00
2023-04-01T12:17:38.520Z,527.00
2023-04-01T12:18:38.444Z,524.00
2023-04-01T12:19:38.463Z,524.00
2023-04-01T12:20:38.474Z,523.00
2023-04-01T12:21:38.451Z,523.00
2023-04-01T12:22:38.457Z,524.00
2023-04-01T12:23:38.428Z,521.00
2023-04-01T12:24:38.443Z,520.00
2023-04-01T12:25:38.428Z,516.00
2023-04-01T12:26:38.439Z,515.00
2023-04-01T12:27:38.379Z,514.00
2023-04-01T12:28:38.387Z,515.00
2023-04-01T12:29:38.399Z,517.00
2023-04-01T12:30:38.381Z,520.00